createdAt,value
2017-10-31T00:01:31.140Z,9.92
2017-10-31T00:03:57.090Z,9.93
2017-10-31T00:06:23.048Z,10.04
2017-10-31T00:08:48.993Z,9.87
2017-10-31T00:11:14.970Z,9.94
2017-10-31T00:13:40.916Z,9.80
2017-10-31T00:16:06.855Z,10.03
2017-10-31T00:18:32.784Z,10.02
2017-10-31T00:20:58.728Z,9.86
2017-10-31T00:23:24.672Z,9.97
2017-10-31T00:25:50.626Z,9.98
2017-10-31T00:28:16.576Z,9.94
2017-10-31T00:30:42.520Z,10.03
2017-10-31T00:33:08.474Z,9.89
2017-10-31T00:35:34.404Z,10.04
2017-10-31T00:38:00.340Z,10.02
2017-10-31T00:40:26.270Z,9.90
2017-10-31T00:42:52.545Z,10.06
2017-10-31T00:45:18.487Z,9.98
2017-10-31T00:47:44.930Z,10.06
2017-10-31T00:50:10.866Z,9.99
2017-10-31T00:52:36.817Z,9.89
2017-10-31T00:55:02.743Z,10.04
2017-10-31T00:57:28.707Z,9.79
2017-10-31T00:59:54.633Z,9.96
2017-10-31T01:02:20.595Z,9.93
2017-10-31T01:04:46.967Z,9.98
2017-10-31T01:07:12.914Z,9.96
2017-10-31T01:09:38.866Z,10.04
2017-10-31T01:12:04.800Z,9.91
2017-10-31T01:14:30.740Z,9.95
2017-10-31T01:16:56.673Z,10.10
2017-10-31T01:19:22.636Z,10.11
2017-10-31T01:21:48.592Z,9.99
2017-10-31T01:24:14.529Z,10.06
2017-10-31T01:26:40.510Z,10.10
2017-10-31T01:29:06.882Z,10.15
2017-10-31T01:31:32.823Z,10.11
2017-10-31T01:33:58.769Z,10.04
2017-10-31T01:36:24.714Z,10.13
2017-10-31T01:38:50.652Z,10.11
2017-10-31T01:41:16.608Z,10.11
2017-10-31T01:43:42.876Z,10.06
2017-10-31T01:46:08.836Z,10.06
2017-10-31T01:48:35.174Z,10.10
2017-10-31T01:51:01.126Z,10.11
2017-10-31T01:53:28.110Z,10.10
2017-10-31T01:55:54.054Z,10.08
2017-10-31T01:58:20.354Z,10.01
2017-10-31T02:00:46.322Z,10.04
2017-10-31T02:03:12.268Z,10.04
2017-10-31T02:05:39.250Z,9.91
2017-10-31T02:08:05.180Z,9.97
2017-10-31T02:10:31.118Z,10.10
2017-10-31T02:12:57.066Z,10.01
2017-10-31T02:15:23.021Z,10.02
2017-10-31T02:17:48.972Z,9.97
2017-10-31T02:20:14.918Z,10.09
2017-10-31T02:22:40.884Z,10.14
2017-10-31T02:25:06.850Z,10.03
2017-10-31T02:27:32.817Z,9.94
2017-10-31T02:29:58.757Z,9.93
2017-10-31T02:32:24.703Z,10.02
2017-10-31T02:34:50.654Z,10.08
2017-10-31T02:37:16.606Z,10.09
2017-10-31T02:39:42.561Z,9.81
2017-10-31T02:42:08.524Z,10.13
2017-10-31T02:44:34.472Z,10.01
2017-10-31T02:47:00.506Z,10.10
2017-10-31T02:49:26.446Z,10.11
2017-10-31T02:51:52.400Z,10.03
2017-10-31T02:54:18.330Z,9.82
2017-10-31T02:56:44.398Z,10.09
2017-10-31T02:59:10.363Z,10.03
2017-10-31T03:01:36.894Z,10.15
2017-10-31T03:04:02.975Z,10.05
2017-10-31T03:06:28.963Z,10.05
2017-10-31T03:08:54.939Z,10.07
2017-10-31T03:11:20.894Z,10.06
2017-10-31T03:13:46.852Z,10.08
2017-10-31T03:16:12.810Z,10.23
2017-10-31T03:18:38.779Z,10.16
2017-10-31T03:21:04.754Z,10.18
2017-10-31T03:23:30.684Z,10.15
2017-10-31T03:25:56.631Z,10.13
2017-10-31T03:28:22.592Z,10.11
2017-10-31T03:30:48.536Z,10.24
2017-10-31T03:33:14.467Z,10.08
2017-10-31T03:35:40.413Z,10.19
2017-10-31T03:38:06.371Z,10.16
2017-10-31T03:40:32.333Z,10.14
2017-10-31T03:42:58.274Z,10.07
2017-10-31T03:45:24.220Z,10.32
2017-10-31T03:47:50.189Z,10.18
2017-10-31T03:50:16.117Z,10.29
2017-10-31T03:52:42.056Z,10.23
2017-10-31T03:55:08.002Z,10.14
2017-10-31T03:57:33.957Z,10.06
2017-10-31T03:59:59.901Z,10.07
2017-10-31T04:02:25.827Z,10.16
2017-10-31T04:04:51.771Z,10.16
2017-10-31T04:07:17.721Z,10.23
2017-10-31T04:09:43.676Z,10.18
2017-10-31T04:12:09.617Z,10.20
2017-10-31T04:14:35.595Z,10.28
2017-10-31T04:17:01.537Z,10.25
2017-10-31T04:19:27.463Z,10.22
2017-10-31T04:21:53.407Z,10.16
2017-10-31T04:24:19.354Z,10.11
2017-10-31T04:26:45.297Z,10.12
2017-10-31T04:29:11.230Z,10.15
2017-10-31T04:31:37.188Z,10.13
2017-10-31T04:34:03.118Z,10.13
2017-10-31T04:36:29.046Z,10.23
2017-10-31T04:38:54.991Z,10.27
2017-10-31T04:41:20.949Z,10.29
2017-10-31T04:43:46.895Z,10.25
2017-10-31T04:46:12.841Z,10.26
2017-10-31T04:48:38.816Z,10.23
2017-10-31T04:51:04.786Z,10.25
2017-10-31T04:53:30.735Z,10.32
2017-10-31T04:55:56.705Z,10.31
2017-10-31T04:58:22.650Z,10.26
2017-10-31T05:00:48.614Z,10.16
2017-10-31T05:03:14.548Z,10.21
2017-10-31T05:05:40.540Z,10.26
2017-10-31T05:08:06.501Z,10.30
2017-10-31T05:10:32.446Z,10.19
2017-10-31T05:12:58.372Z,10.21
2017-10-31T05:15:24.325Z,10.28
2017-10-31T05:17:50.571Z,10.16
2017-10-31T05:20:16.552Z,10.36
2017-10-31T05:22:42.488Z,10.27
2017-10-31T05:25:08.445Z,10.33
2017-10-31T05:27:34.397Z,10.32
2017-10-31T05:30:00.397Z,10.23
2017-10-31T05:32:26.346Z,10.09
2017-10-31T05:34:52.273Z,10.14
2017-10-31T05:37:18.245Z,10.05
2017-10-31T05:39:44.170Z,9.93
2017-10-31T05:42:10.119Z,9.98
2017-10-31T05:44:36.104Z,10.05
2017-10-31T05:47:02.043Z,10.05
2017-10-31T05:49:28.026Z,10.10
2017-10-31T05:51:53.987Z,9.93
2017-10-31T05:54:19.953Z,10.00
2017-10-31T05:56:45.904Z,10.05
2017-10-31T05:59:11.834Z,9.97
2017-10-31T06:01:37.789Z,10.09
2017-10-31T06:04:03.733Z,9.97
2017-10-31T06:06:29.682Z,9.98
2017-10-31T06:08:55.633Z,10.00
2017-10-31T06:11:21.591Z,10.00
2017-10-31T06:13:47.536Z,10.00
2017-10-31T06:16:13.483Z,9.98
2017-10-31T06:18:39.432Z,10.03
2017-10-31T06:21:05.426Z,9.98
2017-10-31T06:23:31.360Z,10.07
2017-10-31T06:25:57.307Z,10.08
2017-10-31T06:28:23.242Z,10.11
2017-10-31T06:30:49.456Z,10.07
2017-10-31T06:33:15.446Z,10.05
2017-10-31T06:35:41.478Z,10.20
2017-10-31T06:38:07.407Z,10.14
2017-10-31T06:40:33.357Z,10.11
2017-10-31T06:42:59.594Z,10.19
2017-10-31T06:45:25.538Z,10.15
2017-10-31T06:47:51.472Z,10.08
2017-10-31T06:50:17.412Z,10.11
2017-10-31T06:52:43.357Z,10.16
2017-10-31T06:55:09.352Z,10.17
2017-10-31T06:57:35.370Z,10.02
2017-10-31T07:00:01.311Z,10.15
2017-10-31T07:02:27.255Z,10.01
2017-10-31T07:04:53.192Z,10.04
2017-10-31T07:07:19.138Z,10.19
2017-10-31T07:09:45.069Z,10.13
2017-10-31T07:12:11.262Z,10.09
2017-10-31T07:14:37.209Z,10.06
2017-10-31T07:17:03.148Z,10.12
2017-10-31T07:19:29.081Z,10.17
2017-10-31T07:21:55.098Z,10.11
2017-10-31T07:24:21.037Z,10.15
2017-10-31T07:26:46.969Z,10.15
2017-10-31T07:29:12.914Z,10.15
2017-10-31T07:31:38.884Z,10.11
2017-10-31T07:34:04.855Z,10.08
2017-10-31T07:36:30.793Z,10.22
2017-10-31T07:38:56.748Z,10.17
2017-10-31T07:41:22.768Z,10.29
2017-10-31T07:43:48.743Z,10.33
2017-10-31T07:46:14.712Z,10.21
2017-10-31T07:48:40.652Z,10.19
2017-10-31T07:51:06.654Z,10.24
2017-10-31T07:53:32.628Z,10.34
2017-10-31T07:55:58.595Z,10.44
2017-10-31T07:58:24.543Z,10.57
2017-10-31T08:00:50.484Z,10.35
2017-10-31T08:03:16.440Z,10.32
2017-10-31T08:05:42.379Z,10.27
2017-10-31T08:08:08.359Z,10.35
2017-10-31T08:10:34.321Z,10.33
2017-10-31T08:13:00.259Z,10.49
2017-10-31T08:15:26.214Z,10.42
2017-10-31T08:17:52.158Z,10.23
2017-10-31T08:20:18.091Z,10.40
2017-10-31T08:22:44.786Z,10.45
2017-10-31T08:25:10.782Z,10.60
2017-10-31T08:27:36.722Z,10.75
2017-10-31T08:30:02.766Z,10.76
2017-10-31T08:32:28.753Z,10.71
2017-10-31T08:34:54.802Z,10.76
2017-10-31T08:37:20.745Z,10.96
2017-10-31T08:39:46.763Z,10.87
2017-10-31T08:42:12.740Z,10.83
2017-10-31T08:44:38.703Z,10.97
2017-10-31T08:47:04.666Z,11.30
2017-10-31T08:49:30.618Z,11.15
2017-10-31T08:51:56.692Z,11.11
2017-10-31T08:54:22.628Z,11.15
2017-10-31T08:56:48.576Z,11.08
2017-10-31T08:59:14.517Z,11.20
2017-10-31T09:01:40.479Z,11.05
2017-10-31T09:04:06.442Z,11.03
2017-10-31T09:06:32.407Z,10.97
2017-10-31T09:08:58.416Z,11.03
2017-10-31T09:11:24.377Z,11.19
2017-10-31T09:13:50.385Z,11.18
2017-10-31T09:16:16.332Z,11.04
2017-10-31T09:18:42.309Z,11.02
2017-10-31T09:21:08.251Z,10.98
2017-10-31T09:23:34.286Z,11.05
2017-10-31T09:26:00.223Z,11.17
2017-10-31T09:28:26.202Z,11.14
2017-10-31T09:30:52.190Z,11.10
2017-10-31T09:33:18.149Z,11.08
2017-10-31T09:35:44.170Z,11.05
2017-10-31T09:38:10.121Z,10.99
2017-10-31T09:40:36.071Z,11.05
2017-10-31T09:43:02.037Z,10.99
2017-10-31T09:45:28.013Z,11.01
2017-10-31T09:47:53.954Z,10.95
2017-10-31T09:50:19.932Z,11.01
2017-10-31T09:52:45.896Z,10.91
2017-10-31T09:55:11.868Z,11.08
2017-10-31T09:57:37.818Z,11.16
2017-10-31T10:00:03.770Z,11.19
2017-10-31T10:02:29.723Z,11.95
2017-10-31T10:04:55.712Z,12.14
2017-10-31T10:07:21.698Z,11.81
2017-10-31T10:09:47.683Z,12.27
2017-10-31T10:12:13.662Z,12.16
2017-10-31T10:14:39.626Z,11.92
2017-10-31T10:17:05.601Z,11.89
2017-10-31T10:19:31.566Z,11.99
2017-10-31T10:21:57.522Z,12.00
2017-10-31T10:24:24.149Z,12.17
2017-10-31T10:26:50.134Z,11.87
2017-10-31T10:29:16.080Z,11.90
2017-10-31T10:31:42.051Z,11.90
2017-10-31T10:34:07.984Z,11.85
2017-10-31T10:36:33.936Z,11.73
2017-10-31T10:38:59.882Z,12.13
2017-10-31T10:41:25.871Z,12.09
2017-10-31T10:43:51.826Z,12.63
2017-10-31T10:46:17.812Z,11.99
2017-10-31T10:48:43.777Z,12.32
2017-10-31T10:51:09.757Z,12.39
2017-10-31T10:53:35.716Z,13.14
2017-10-31T10:56:01.667Z,12.29
2017-10-31T10:58:27.652Z,12.01
2017-10-31T11:00:54.761Z,12.04
2017-10-31T11:03:20.730Z,11.90
2017-10-31T11:05:46.669Z,11.92
2017-10-31T11:08:12.619Z,11.83
2017-10-31T11:10:38.559Z,11.85
2017-10-31T11:13:04.517Z,11.91
2017-10-31T11:15:30.503Z,11.94
2017-10-31T11:17:56.661Z,11.88
2017-10-31T11:20:22.699Z,12.06
2017-10-31T11:22:48.669Z,12.17
2017-10-31T11:25:14.649Z,12.12
2017-10-31T11:27:41.698Z,12.10
2017-10-31T11:30:07.685Z,12.14
2017-10-31T11:32:33.645Z,11.77
2017-10-31T11:34:59.623Z,12.00
2017-10-31T11:37:25.630Z,11.97
2017-10-31T11:39:51.865Z,12.17
2017-10-31T11:42:17.821Z,11.93
2017-10-31T11:44:43.764Z,11.93
2017-10-31T11:47:10.124Z,12.04
2017-10-31T11:49:36.079Z,11.98
2017-10-31T11:52:02.027Z,12.00
2017-10-31T11:54:28.001Z,11.78
2017-10-31T11:56:53.946Z,11.96
2017-10-31T11:59:19.880Z,11.82
2017-10-31T12:01:49.098Z,11.86
2017-10-31T12:04:15.118Z,11.88
2017-10-31T12:06:41.073Z,11.84
2017-10-31T12:09:07.036Z,11.70
2017-10-31T12:11:32.967Z,11.87
2017-10-31T12:13:58.909Z,12.05
2017-10-31T12:16:24.935Z,12.13
2017-10-31T12:18:50.895Z,12.23
2017-10-31T12:21:16.875Z,12.33
2017-10-31T12:23:42.907Z,12.35
2017-10-31T12:26:08.848Z,12.26
2017-10-31T12:28:34.806Z,12.17
2017-10-31T12:31:00.752Z,12.18
2017-10-31T12:33:26.847Z,12.29
2017-10-31T12:35:52.783Z,12.23
2017-10-31T12:38:18.861Z,12.30
2017-10-31T12:40:44.812Z,12.37
2017-10-31T12:43:10.807Z,12.38
2017-10-31T12:45:36.741Z,12.31
2017-10-31T12:48:02.690Z,12.37
2017-10-31T12:50:28.803Z,12.46
2017-10-31T12:52:55.076Z,12.22
2017-10-31T12:55:21.036Z,12.15
2017-10-31T12:57:46.984Z,12.10
2017-10-31T13:00:12.970Z,12.25
2017-10-31T13:02:38.932Z,12.26
2017-10-31T13:05:04.883Z,12.18
2017-10-31T13:07:30.848Z,12.27
2017-10-31T13:09:56.864Z,12.23
2017-10-31T13:12:22.841Z,12.24
2017-10-31T13:14:48.803Z,12.35
2017-10-31T13:17:14.788Z,12.18
2017-10-31T13:19:40.745Z,12.30
2017-10-31T13:22:06.700Z,12.58
2017-10-31T13:24:32.658Z,12.38
2017-10-31T13:26:58.605Z,12.53
2017-10-31T13:29:24.576Z,12.60
2017-10-31T13:31:50.524Z,12.46
2017-10-31T13:34:16.547Z,12.19
2017-10-31T13:36:42.503Z,12.12
2017-10-31T13:39:08.443Z,12.03
2017-10-31T13:41:34.402Z,12.03
2017-10-31T13:44:00.346Z,12.16
2017-10-31T13:46:26.292Z,12.11
2017-10-31T13:48:52.240Z,12.17
2017-10-31T13:51:18.223Z,12.16
2017-10-31T13:53:44.183Z,12.04
2017-10-31T13:56:10.144Z,11.92
2017-10-31T13:58:36.079Z,11.99
2017-10-31T14:01:02.193Z,12.00
2017-10-31T14:03:28.158Z,12.05
2017-10-31T14:05:54.110Z,12.04
2017-10-31T14:08:20.060Z,12.01
2017-10-31T14:10:46.002Z,12.05
2017-10-31T14:13:11.940Z,11.94
2017-10-31T14:15:37.883Z,11.94
2017-10-31T14:18:03.856Z,11.97
2017-10-31T14:20:29.820Z,12.04
2017-10-31T14:22:55.787Z,12.04
2017-10-31T14:25:21.747Z,12.08
2017-10-31T14:27:47.723Z,12.09
2017-10-31T14:30:13.659Z,12.09
2017-10-31T14:32:39.630Z,12.12
2017-10-31T14:35:05.577Z,12.15
2017-10-31T14:37:31.576Z,12.19
2017-10-31T14:39:57.527Z,12.04
2017-10-31T14:42:23.468Z,12.00
2017-10-31T14:44:49.412Z,12.05
2017-10-31T14:47:15.350Z,12.01
2017-10-31T14:49:41.324Z,11.93
2017-10-31T14:52:07.293Z,11.85
2017-10-31T14:54:33.246Z,12.13
2017-10-31T14:56:59.215Z,12.28
2017-10-31T14:59:25.184Z,12.11
2017-10-31T15:01:51.196Z,12.13
2017-10-31T15:04:17.132Z,12.01
2017-10-31T15:06:43.124Z,12.09
2017-10-31T15:09:09.070Z,12.03
2017-10-31T15:11:35.018Z,12.09
2017-10-31T15:14:01.004Z,12.07
2017-10-31T15:16:27.047Z,11.96
2017-10-31T15:18:53.131Z,12.08
2017-10-31T15:21:19.180Z,12.01
2017-10-31T15:23:45.154Z,12.10
2017-10-31T15:26:11.111Z,12.03
2017-10-31T15:28:37.177Z,12.10
2017-10-31T15:31:03.122Z,12.37
2017-10-31T15:33:29.073Z,12.37
2017-10-31T15:35:55.015Z,12.50
2017-10-31T15:38:20.964Z,12.56
2017-10-31T15:40:46.914Z,12.49
2017-10-31T15:43:12.860Z,12.50
2017-10-31T15:45:38.836Z,12.30
2017-10-31T15:48:04.792Z,12.55
2017-10-31T15:50:30.751Z,12.45
2017-10-31T15:52:56.722Z,12.31
2017-10-31T15:55:22.708Z,12.28
2017-10-31T15:57:48.676Z,12.44
2017-10-31T16:00:14.623Z,12.45
2017-10-31T16:02:40.568Z,12.45
2017-10-31T16:05:06.532Z,12.38
2017-10-31T16:07:32.479Z,12.20
2017-10-31T16:09:58.404Z,12.19
2017-10-31T16:12:24.348Z,12.32
2017-10-31T16:14:50.825Z,12.30
2017-10-31T16:17:16.783Z,12.40
2017-10-31T16:19:42.728Z,12.19
2017-10-31T16:22:08.678Z,12.24
2017-10-31T16:24:34.729Z,12.29
2017-10-31T16:27:00.689Z,12.29
2017-10-31T16:29:26.661Z,12.35
2017-10-31T16:31:52.596Z,12.46
2017-10-31T16:34:18.550Z,12.17
2017-10-31T16:36:44.504Z,12.37
2017-10-31T16:39:10.445Z,12.27
2017-10-31T16:41:36.748Z,11.92
2017-10-31T16:44:02.718Z,11.95
2017-10-31T16:46:28.705Z,12.05
2017-10-31T16:48:54.749Z,12.15
2017-10-31T16:51:20.756Z,12.28
2017-10-31T16:53:46.759Z,12.04
2017-10-31T16:56:12.896Z,12.04
2017-10-31T16:58:38.842Z,12.00
2017-10-31T17:01:04.918Z,12.15
2017-10-31T17:03:30.877Z,12.22
2017-10-31T17:05:56.852Z,12.18
2017-10-31T17:08:22.827Z,12.12
2017-10-31T17:10:48.772Z,12.30
2017-10-31T17:13:14.709Z,12.50
2017-10-31T17:15:40.664Z,12.46
2017-10-31T17:18:06.716Z,12.18
2017-10-31T17:20:32.733Z,12.18
2017-10-31T17:22:58.744Z,12.04
2017-10-31T17:25:24.691Z,12.21
2017-10-31T17:27:50.688Z,12.10
2017-10-31T17:30:16.665Z,12.10
2017-10-31T17:32:42.596Z,12.23
2017-10-31T17:35:08.568Z,12.30
2017-10-31T17:37:34.504Z,12.33
2017-10-31T17:40:00.467Z,12.13
2017-10-31T17:42:26.417Z,12.16
2017-10-31T17:44:52.410Z,12.14
2017-10-31T17:47:18.362Z,12.11
2017-10-31T17:49:44.322Z,12.07
2017-10-31T17:52:10.350Z,12.02
2017-10-31T17:54:36.371Z,12.02
2017-10-31T17:57:02.345Z,11.98
2017-10-31T17:59:28.321Z,11.98
2017-10-31T18:01:54.295Z,11.92
2017-10-31T18:04:20.304Z,12.04
2017-10-31T18:06:46.310Z,11.98
2017-10-31T18:09:12.302Z,11.91
2017-10-31T18:11:38.272Z,11.95
2017-10-31T18:14:04.289Z,11.94
2017-10-31T18:16:30.266Z,11.92
2017-10-31T18:18:56.260Z,12.01
2017-10-31T18:21:22.277Z,11.90
2017-10-31T18:23:48.235Z,11.95
2017-10-31T18:26:14.216Z,11.93
2017-10-31T18:28:40.392Z,11.91
2017-10-31T18:31:06.376Z,11.92
2017-10-31T18:33:32.314Z,11.94
2017-10-31T18:35:58.300Z,11.95
2017-10-31T18:38:24.272Z,11.83
2017-10-31T18:40:52.087Z,11.87
2017-10-31T18:43:18.048Z,11.91
2017-10-31T18:45:44.117Z,11.89
2017-10-31T18:48:10.077Z,11.88
2017-10-31T18:50:36.131Z,11.85
2017-10-31T18:53:02.456Z,11.95
2017-10-31T18:55:28.486Z,11.87
2017-10-31T18:57:54.441Z,11.87
2017-10-31T19:00:21.384Z,11.85
2017-10-31T19:02:47.389Z,11.93
2017-10-31T19:05:13.504Z,11.86
2017-10-31T19:07:39.495Z,11.87
2017-10-31T19:10:05.438Z,11.86
2017-10-31T19:12:31.407Z,11.94
2017-10-31T19:14:57.417Z,11.93
2017-10-31T19:17:23.392Z,11.89
2017-10-31T19:19:49.360Z,11.81
2017-10-31T19:22:15.352Z,11.76
2017-10-31T19:24:41.321Z,11.91
2017-10-31T19:27:07.296Z,11.84
2017-10-31T19:29:33.368Z,11.84
2017-10-31T19:31:59.322Z,11.86
2017-10-31T19:34:25.296Z,11.90
2017-10-31T19:36:51.296Z,11.83
2017-10-31T19:39:17.243Z,11.86
2017-10-31T19:41:43.369Z,11.88
2017-10-31T19:44:09.348Z,11.91
2017-10-31T19:46:35.390Z,11.85
2017-10-31T19:49:01.375Z,11.89
2017-10-31T19:51:27.332Z,11.83
2017-10-31T19:53:53.328Z,11.84
2017-10-31T19:56:19.893Z,11.86
2017-10-31T19:58:46.051Z,11.89
2017-10-31T20:01:12.029Z,11.88
2017-10-31T20:03:38.010Z,11.84
2017-10-31T20:06:03.956Z,11.84
2017-10-31T20:08:29.903Z,11.86
2017-10-31T20:10:56.787Z,11.77
2017-10-31T20:13:22.749Z,11.81
2017-10-31T20:15:48.707Z,11.84
2017-10-31T20:18:14.673Z,11.86
2017-10-31T20:20:40.618Z,11.77
2017-10-31T20:23:06.686Z,11.89
2017-10-31T20:25:32.708Z,11.82
2017-10-31T20:27:59.279Z,11.84
2017-10-31T20:30:25.285Z,11.88
2017-10-31T20:32:51.248Z,11.80
2017-10-31T20:35:17.538Z,11.86
2017-10-31T20:37:43.629Z,11.94
2017-10-31T20:40:09.581Z,11.82
2017-10-31T20:42:35.548Z,11.91
2017-10-31T20:45:01.493Z,11.96
2017-10-31T20:47:27.486Z,11.86
2017-10-31T20:49:53.430Z,11.83
2017-10-31T20:52:19.373Z,11.88
2017-10-31T20:54:45.385Z,11.87
2017-10-31T20:57:11.386Z,11.93
2017-10-31T20:59:37.352Z,11.84
2017-10-31T21:02:03.312Z,11.89
2017-10-31T21:04:29.304Z,11.85
2017-10-31T21:06:55.257Z,11.94
2017-10-31T21:09:21.443Z,11.85
2017-10-31T21:11:47.401Z,11.85
2017-10-31T21:14:13.373Z,11.73
2017-10-31T21:16:39.410Z,11.84
2017-10-31T21:19:05.448Z,11.78
2017-10-31T21:21:31.443Z,11.84
2017-10-31T21:23:57.400Z,11.78
2017-10-31T21:26:23.425Z,11.88
2017-10-31T21:28:49.377Z,11.90
2017-10-31T21:31:15.377Z,11.90
2017-10-31T21:33:41.345Z,11.86
2017-10-31T21:36:07.297Z,11.78
2017-10-31T21:38:33.243Z,11.84
2017-10-31T21:40:59.185Z,11.87
2017-10-31T21:43:25.153Z,11.88
2017-10-31T21:45:51.181Z,11.79
2017-10-31T21:48:17.135Z,11.84
2017-10-31T21:50:43.309Z,11.76
2017-10-31T21:53:09.251Z,11.78
2017-10-31T21:55:35.183Z,11.87
2017-10-31T21:58:01.123Z,11.84
2017-10-31T22:00:27.249Z,11.85
2017-10-31T22:02:53.211Z,11.86
2017-10-31T22:05:19.207Z,11.96
2017-10-31T22:07:45.208Z,11.84
2017-10-31T22:10:11.230Z,11.89
2017-10-31T22:12:37.217Z,11.77
2017-10-31T22:15:03.190Z,11.89
2017-10-31T22:17:29.169Z,11.85
2017-10-31T22:19:55.151Z,11.77
2017-10-31T22:22:21.182Z,11.80
2017-10-31T22:24:47.134Z,11.85
2017-10-31T22:27:13.195Z,11.85
2017-10-31T22:29:39.173Z,11.81
2017-10-31T22:32:05.121Z,11.96
2017-10-31T22:34:31.081Z,11.82
2017-10-31T22:36:57.042Z,11.87
2017-10-31T22:39:22.994Z,11.82
2017-10-31T22:41:48.947Z,11.95
2017-10-31T22:44:14.904Z,11.91
2017-10-31T22:46:40.853Z,11.84
2017-10-31T22:49:06.810Z,11.81
2017-10-31T22:51:32.799Z,11.88
2017-10-31T22:53:58.755Z,11.93
2017-10-31T22:56:24.701Z,11.87
2017-10-31T22:58:50.669Z,11.90
2017-10-31T23:01:16.599Z,11.88
2017-10-31T23:03:42.535Z,11.91
2017-10-31T23:06:08.876Z,11.81
2017-10-31T23:08:34.843Z,11.81
2017-10-31T23:11:00.833Z,11.98
2017-10-31T23:13:26.790Z,11.92
2017-10-31T23:15:52.742Z,11.82
2017-10-31T23:18:18.747Z,11.89
2017-10-31T23:20:44.697Z,11.81
2017-10-31T23:23:10.669Z,11.88
2017-10-31T23:25:36.600Z,11.88
2017-10-31T23:28:02.590Z,11.87
2017-10-31T23:30:28.525Z,11.78
2017-10-31T23:32:54.482Z,11.81
2017-10-31T23:35:20.488Z,11.83
2017-10-31T23:37:46.446Z,11.86
2017-10-31T23:40:12.419Z,11.89
2017-10-31T23:42:38.727Z,11.83
2017-10-31T23:45:04.678Z,11.92
2017-10-31T23:47:30.727Z,11.88
2017-10-31T23:49:56.675Z,11.90
2017-10-31T23:52:22.613Z,11.89
2017-10-31T23:54:48.865Z,11.82
2017-10-31T23:57:14.867Z,11.90
2017-10-31T23:59:40.847Z,11.93
